Time;durP1;ratioP1;P1;durP2;ratioP2;P2;SDS_P1;SDS_P2;PMS_P1;PMS_P2;Temp;Humidity;BMP_temperature;BMP_pressure;BME280_temperature;BME280_humidity;BME280_pressure;Samples;Min_cycle;Max_cycle;Signal;HPM_P1;HPM_P2
2024/01/19 00:00:57;;;;;;;4.25;0.98;;;14.70;68.10;;;;;;4204778;27;20308;-43
2024/01/19 00:03:38;;;;;;;1.77;0.68;;;14.80;68.10;;;;;;4207527;28;20055;-51
2024/01/19 00:06:19;;;;;;;3.70;1.08;;;14.90;67.90;;;;;;4201875;28;20197;-44
2024/01/19 00:09:00;;;;;;;7.40;0.75;;;14.90;67.70;;;;;;4195709;28;20148;-44
2024/01/19 00:11:42;;;;;;;3.23;0.80;;;14.90;67.50;;;;;;4216571;27;20055;-44
2024/01/19 00:14:24;;;;;;;0.70;0.40;;;14.90;67.50;;;;;;4218949;28;20055;-45
2024/01/19 00:17:07;;;;;;;2.05;0.70;;;14.90;67.40;;;;;;4219712;27;20858;-44
2024/01/19 00:19:48;;;;;;;1.52;0.60;;;14.90;67.10;;;;;;4213750;27;20172;-44
2024/01/19 00:22:38;;;;;;;4.45;0.95;;;14.90;67.30;;;;;;4223289;27;20050;-44
2024/01/19 00:25:19;;;;;;;;;;;14.90;67.40;;;;;;4212916;27;21080;-45
2024/01/19 00:28:02;;;;;;;1.95;0.70;;;15.00;67.40;;;;;;4220282;27;19926;-45
2024/01/19 00:30:43;;;;;;;1.60;0.93;;;15.10;67.30;;;;;;4166664;28;20074;-46
2024/01/19 00:33:29;;;;;;;1.17;0.57;;;15.00;67.00;;;;;;4185939;27;20048;-44
2024/01/19 00:36:10;;;;;;;1.30;0.40;;;15.00;66.80;;;;;;4201301;28;20100;-44
2024/01/19 00:38:52;;;;;;;3.60;0.50;;;15.00;66.80;;;;;;4187368;27;20050;-44
2024/01/19 00:41:33;;;;;;;0.50;0.40;;;15.00;67.00;;;;;;4186317;28;20724;-44
2024/01/19 00:44:17;;;;;;;4.10;0.57;;;14.90;67.10;;;;;;4179147;28;20096;-44
2024/01/19 00:46:59;;;;;;;1.77;0.40;;;14.90;67.10;;;;;;4205802;28;20059;-45
2024/01/19 00:49:40;;;;;;;0.82;0.60;;;14.90;66.90;;;;;;4193937;28;20055;-43
2024/01/19 00:52:21;;;;;;;5.15;0.88;;;14.90;66.90;;;;;;4191815;28;20455;-45
2024/01/19 00:55:02;;;;;;;1.08;0.50;;;15.00;67.10;;;;;;4203697;27;20063;-44
2024/01/19 00:57:43;;;;;;;0.95;0.45;;;15.10;67.00;;;;;;4201486;28;20048;-43
2024/01/19 01:00:28;;;;;;;1.15;0.30;;;15.10;66.60;;;;;;4205064;27;20054;-43
2024/01/19 01:03:10;;;;;;;0.93;0.40;;;15.20;66.20;;;;;;4209207;27;20050;-42
2024/01/19 01:05:56;;;;;;;0.47;0.47;;;15.20;66.20;;;;;;4204884;27;20047;-43
2024/01/19 01:08:37;;;;;;;1.58;0.50;;;15.20;66.00;;;;;;4203450;28;20184;-44
2024/01/19 01:11:18;;;;;;;1.05;0.40;;;15.10;66.20;;;;;;4203248;28;20051;-44
2024/01/19 01:14:00;;;;;;;0.55;0.55;;;15.10;66.50;;;;;;4218969;27;20488;-43
2024/01/19 01:16:42;;;;;;;1.05;0.40;;;15.10;66.50;;;;;;4215221;27;20104;-42
2024/01/19 01:19:23;;;;;;;0.45;0.43;;;15.10;66.20;;;;;;4197817;28;20076;-43
2024/01/19 01:22:05;;;;;;;1.02;0.35;;;15.20;66.20;;;;;;4208953;27;20092;-43
2024/01/19 01:24:46;;;;;;;0.20;0.20;;;15.30;66.00;;;;;;4201504;28;20051;-43
2024/01/19 01:27:30;;;;;;;0.73;0.40;;;15.40;65.70;;;;;;4200550;28;20514;-42
2024/01/19 01:30:16;;;;;;;1.50;0.35;;;15.40;65.40;;;;;;4193045;28;20047;-43
2024/01/19 01:32:58;;;;;;;1.30;0.32;;;15.50;65.40;;;;;;4200563;28;20058;-43
2024/01/19 01:35:43;;;;;;;0.57;0.20;;;15.50;65.20;;;;;;4209366;27;20054;-42
2024/01/19 01:38:24;;;;;;;1.38;0.40;;;15.60;65.00;;;;;;4187849;28;20055;-43
2024/01/19 01:41:08;;;;;;;0.32;0.30;;;15.60;64.90;;;;;;4179522;28;20127;-44
2024/01/19 01:43:50;;;;;;;1.35;0.50;;;15.60;64.80;;;;;;4191045;27;20065;-43
2024/01/19 01:46:31;;;;;;;0.60;0.40;;;15.70;64.60;;;;;;4186460;28;20091;-42
2024/01/19 01:49:14;;;;;;;0.80;0.40;;;15.80;64.30;;;;;;4188306;28;20063;-43
2024/01/19 01:51:58;;;;;;;1.42;0.40;;;16.00;64.00;;;;;;4186285;27;20064;-43
2024/01/19 01:54:40;;;;;;;0.93;0.88;;;16.10;63.50;;;;;;4199099;28;20046;-43
2024/01/19 01:57:23;;;;;;;1.27;0.52;;;16.20;63.10;;;;;;4203407;28;20059;-42
2024/01/19 02:00:23;;;;;;;0.90;0.40;;;16.20;63.90;;;;;;4203955;28;20071;-43
2024/01/19 02:03:06;;;;;;;1.80;0.60;;;16.30;62.60;;;;;;4185831;28;20120;-43
2024/01/19 02:05:49;;;;;;;2.25;0.50;;;16.40;62.50;;;;;;4213771;27;20517;-42
2024/01/19 02:08:31;;;;;;;1.52;0.40;;;16.40;62.40;;;;;;4209981;27;20057;-42
2024/01/19 02:11:12;;;;;;;0.75;0.30;;;16.40;62.40;;;;;;4216895;27;20070;-42
2024/01/19 02:13:57;;;;;;;1.02;0.40;;;16.40;62.50;;;;;;4198636;27;20059;-42
2024/01/19 02:17:03;;;;;;;1.67;0.60;;;16.30;62.60;;;;;;4181630;27;20056;-42
2024/01/19 02:20:03;;;;;;;0.65;0.43;;;16.30;63.00;;;;;;4199199;28;20147;-42
2024/01/19 02:22:48;;;;;;;1.05;1.02;;;16.20;62.90;;;;;;4194848;28;20189;-48
2024/01/19 02:25:33;;;;;;;0.63;0.50;;;16.30;62.80;;;;;;4202268;28;20055;-42
2024/01/19 02:28:28;;;;;;;1.83;0.73;;;16.20;62.60;;;;;;4202859;28;20104;-42
2024/01/19 02:31:11;;;;;;;2.13;0.60;;;16.10;62.70;;;;;;4203827;27;20379;-43
2024/01/19 02:33:52;;;;;;;1.75;0.50;;;16.10;62.80;;;;;;4152953;28;20518;-43
2024/01/19 02:36:39;;;;;;;2.75;0.50;;;16.00;63.00;;;;;;4192240;28;20581;-44
2024/01/19 02:39:23;;;;;;;1.10;0.65;;;15.90;63.60;;;;;;4178566;28;20101;-45
2024/01/19 02:42:09;;;;;;;1.67;0.70;;;15.90;64.60;;;;;;4190893;28;20621;-44
2024/01/19 02:44:54;;;;;;;1.75;0.55;;;16.00;63.80;;;;;;4189113;28;20132;-44
2024/01/19 02:47:37;;;;;;;;;;;16.10;63.40;;;;;;4205914;27;20063;-43
2024/01/19 02:50:20;;;;;;;2.72;0.82;;;16.20;63.00;;;;;;4207505;27;19942;-44
2024/01/19 02:53:02;;;;;;;1.15;0.40;;;16.30;62.70;;;;;;4196460;27;20062;-44
2024/01/19 02:55:49;;;;;;;0.93;0.65;;;16.40;62.70;;;;;;4218859;27;20083;-45
2024/01/19 02:58:47;;;;;;;1.02;0.60;;;16.40;62.30;;;;;;4158933;28;20717;-45
2024/01/19 03:01:30;;;;;;;2.00;0.50;;;16.50;62.00;;;;;;4177235;27;20098;-44
2024/01/19 03:04:18;;;;;;;0.52;0.52;;;16.60;61.80;;;;;;4146842;28;20086;-45
2024/01/19 03:07:09;;;;;;;1.60;0.60;;;16.60;61.50;;;;;;4189179;27;20058;-48
2024/01/19 03:09:50;;;;;;;2.03;0.77;;;16.60;61.50;;;;;;4191251;27;20528;-45
2024/01/19 03:12:51;;;;;;;0.70;0.65;;;16.60;61.30;;;;;;4205159;27;20059;-46
2024/01/19 03:15:44;;;;;;;1.13;0.50;;;16.60;61.50;;;;;;4195887;27;20178;-45
2024/01/19 03:18:36;;;;;;;0.82;0.70;;;16.60;62.40;;;;;;4172791;27;20444;-45
2024/01/19 03:21:32;;;;;;;1.35;0.60;;;16.60;61.50;;;;;;4207236;28;20077;-45
2024/01/19 03:24:39;;;;;;;1.40;0.45;;;16.60;61.50;;;;;;4190559;28;20078;-44
2024/01/19 03:27:26;;;;;;;1.77;0.63;;;16.60;61.50;;;;;;4190973;28;20430;-44
2024/01/19 03:30:08;;;;;;;;;;;16.60;61.50;;;;;;4153674;28;20060;-45
2024/01/19 03:32:57;;;;;;;2.30;0.43;;;16.60;61.50;;;;;;4158308;28;20351;-45
2024/01/19 03:35:39;;;;;;;1.77;0.63;;;16.50;61.40;;;;;;4207998;27;20429;-46
2024/01/19 03:38:23;;;;;;;1.65;0.70;;;16.50;61.50;;;;;;4201536;28;20423;-45
2024/01/19 03:41:05;;;;;;;2.90;0.77;;;16.40;61.70;;;;;;4199320;27;20097;-45
2024/01/19 03:43:54;;;;;;;;;;;16.40;62.10;;;;;;4201728;28;20059;-44
2024/01/19 03:46:36;;;;;;;3.40;0.63;;;16.30;62.40;;;;;;4193132;28;19960;-44
2024/01/19 03:49:30;;;;;;;2.65;0.60;;;16.20;62.30;;;;;;4193684;27;20055;-44
2024/01/19 03:52:12;;;;;;;0.80;0.60;;;16.20;62.30;;;;;;4193517;27;20104;-43
2024/01/19 03:55:08;;;;;;;1.70;0.50;;;16.10;62.60;;;;;;4191716;27;20050;-44
2024/01/19 03:57:49;;;;;;;4.45;1.00;;;16.10;63.00;;;;;;4191176;27;20051;-42
2024/01/19 04:00:31;;;;;;;1.48;0.70;;;16.10;63.10;;;;;;4201271;28;20729;-42
2024/01/19 04:03:15;;;;;;;6.10;0.70;;;16.10;63.00;;;;;;4186753;27;20425;-43
2024/01/19 04:06:02;;;;;;;2.20;0.60;;;16.30;62.70;;;;;;4207821;27;20059;-42
2024/01/19 04:08:48;;;;;;;0.98;0.50;;;16.40;62.20;;;;;;4161840;28;20548;-43
2024/01/19 04:14:38;;;;;;;2.53;1.02;;;16.50;62.50;;;;;;4168547;28;20051;-42
2024/01/19 04:17:32;;;;;;;1.10;0.80;;;16.50;61.50;;;;;;4193530;27;20059;-43
2024/01/19 04:20:17;;;;;;;1.95;0.40;;;16.60;61.50;;;;;;4207957;27;20121;-43
2024/01/19 04:23:00;;;;;;;1.40;0.77;;;16.50;62.30;;;;;;4178393;28;20490;-43
2024/01/19 04:25:50;;;;;;;1.70;0.60;;;16.60;61.50;;;;;;4178191;28;20054;-43
2024/01/19 04:28:39;;;;;;;1.80;0.50;;;16.60;61.20;;;;;;4184981;28;20434;-43
2024/01/19 04:31:36;;;;;;;1.92;0.45;;;16.70;61.00;;;;;;4196681;27;20050;-45
2024/01/19 04:34:26;;;;;;;0.45;0.40;;;16.70;60.90;;;;;;4200378;27;20566;-42
2024/01/19 04:37:10;;;;;;;1.73;0.80;;;16.70;60.70;;;;;;4213036;27;20059;-43
2024/01/19 04:39:55;;;;;;;5.38;0.88;;;16.70;60.70;;;;;;4178430;28;20387;-44
2024/01/19 04:42:45;;;;;;;2.58;0.88;;;16.70;60.70;;;;;;4194060;28;20383;-43
2024/01/19 04:45:29;;;;;;;3.72;0.90;;;16.70;60.80;;;;;;4201764;28;20050;-43
2024/01/19 04:48:10;;;;;;;;;;;16.50;60.90;;;;;;4182703;28;20051;-43
2024/01/19 04:51:12;;;;;;;3.08;0.85;;;16.40;61.30;;;;;;4189868;28;20294;-42
2024/01/19 04:53:54;;;;;;;3.47;0.93;;;16.30;61.90;;;;;;4197775;27;20054;-43
2024/01/19 04:56:39;;;;;;;2.47;0.80;;;16.20;62.20;;;;;;4219233;27;20058;-44
2024/01/19 04:59:26;;;;;;;2.55;0.93;;;16.20;62.00;;;;;;4206644;27;20441;-42
2024/01/19 05:02:10;;;;;;;1.85;0.80;;;16.20;62.00;;;;;;4209313;27;20047;-42
2024/01/19 05:04:56;;;;;;;4.88;1.23;;;16.20;62.40;;;;;;4166162;28;20390;-42
2024/01/19 05:07:43;;;;;;;4.43;1.02;;;16.20;62.30;;;;;;4224173;27;20147;-42
2024/01/19 05:10:31;;;;;;;4.22;0.90;;;16.20;62.10;;;;;;4218938;27;20054;-43
2024/01/19 05:13:23;;;;;;;4.13;1.08;;;16.40;61.80;;;;;;4200783;27;20445;-42
2024/01/19 05:16:07;;;;;;;3.75;0.75;;;16.50;61.40;;;;;;4186262;28;20054;-44
2024/01/19 05:18:49;;;;;;;;;;;16.60;61.00;;;;;;4164425;28;20113;-43
2024/01/19 05:21:31;;;;;;;4.50;0.70;;;16.70;61.00;;;;;;4210373;27;19926;-43
2024/01/19 05:24:16;;;;;;;1.20;0.70;;;16.70;60.70;;;;;;4221489;27;20665;-43
2024/01/19 05:27:18;;;;;;;3.10;0.90;;;16.70;60.50;;;;;;4197760;28;20066;-43
2024/01/19 05:30:07;;;;;;;2.42;0.60;;;16.70;60.40;;;;;;4184478;27;20477;-42
2024/01/19 05:32:49;;;;;;;4.45;0.82;;;16.70;60.50;;;;;;4205149;27;20059;-43
2024/01/19 05:35:31;;;;;;;1.10;0.68;;;16.70;60.50;;;;;;4170940;28;20155;-43
2024/01/19 05:38:24;;;;;;;2.70;0.90;;;16.60;60.50;;;;;;4104149;28;20059;-42
2024/01/19 05:41:08;;;;;;;1.20;0.70;;;16.60;60.40;;;;;;4151962;27;20062;-43
2024/01/19 05:43:52;;;;;;;3.45;1.20;;;16.50;60.80;;;;;;4164134;28;20105;-46
2024/01/19 05:46:39;;;;;;;2.30;0.65;;;16.50;60.90;;;;;;4181622;27;20059;-44
2024/01/19 05:49:24;;;;;;;1.73;0.70;;;16.50;61.00;;;;;;4147713;27;20047;-43
2024/01/19 05:52:11;;;;;;;2.15;0.73;;;16.40;61.20;;;;;;4203554;27;20125;-43
2024/01/19 05:55:04;;;;;;;2.05;1.00;;;16.30;61.30;;;;;;4183004;27;20529;-42
2024/01/19 05:58:03;;;;;;;1.70;1.17;;;16.20;61.60;;;;;;4178928;28;20113;-42
2024/01/19 06:00:44;;;;;;;1.45;0.80;;;16.00;62.00;;;;;;4184350;27;20233;-43
2024/01/19 06:03:41;;;;;;;1.80;0.70;;;16.00;62.60;;;;;;4178456;28;20503;-43
2024/01/19 06:06:23;;;;;;;1.58;0.70;;;16.00;62.70;;;;;;4172194;28;20062;-42
2024/01/19 06:09:12;;;;;;;4.82;0.80;;;16.10;62.50;;;;;;4146254;28;20048;-42
2024/01/19 06:12:10;;;;;;;2.28;0.85;;;16.30;62.10;;;;;;4166105;28;20989;-42
2024/01/19 06:14:58;;;;;;;2.92;0.95;;;16.40;61.70;;;;;;4169021;27;20130;-43
2024/01/19 06:17:39;;;;;;;1.33;0.95;;;16.50;61.40;;;;;;4187471;28;20438;-43
2024/01/19 06:20:29;;;;;;;1.85;0.70;;;16.60;60.90;;;;;;4140399;28;20060;-43
2024/01/19 06:23:14;;;;;;;4.22;0.77;;;16.70;60.30;;;;;;4204549;28;20050;-41
2024/01/19 06:25:58;;;;;;;5.60;1.10;;;16.90;60.10;;;;;;4164227;28;20051;-44
2024/01/19 06:28:43;;;;;;;2.13;0.70;;;17.00;59.80;;;;;;4137259;28;20051;-44
2024/01/19 06:31:25;;;;;;;4.70;0.90;;;17.00;59.60;;;;;;4141936;28;20228;-45
2024/01/19 06:34:07;;;;;;;4.18;0.98;;;17.00;59.60;;;;;;4200071;28;20046;-44
2024/01/19 06:37:02;;;;;;;6.28;1.00;;;16.90;59.60;;;;;;4186592;27;20110;-46
2024/01/19 06:39:46;;;;;;;1.65;0.90;;;16.90;59.70;;;;;;4191045;27;20543;-44
2024/01/19 06:42:53;;;;;;;3.78;1.15;;;17.00;59.80;;;;;;4197670;27;20559;-46
2024/01/19 06:45:40;;;;;;;3.95;1.33;;;17.00;59.40;;;;;;4132277;28;20587;-44
2024/01/19 06:48:40;;;;;;;3.45;1.05;;;17.10;59.40;;;;;;4167595;27;20094;-44
2024/01/19 06:51:37;;;;;;;1.77;0.80;;;17.00;59.30;;;;;;4152031;28;20189;-45
2024/01/19 06:54:21;;;;;;;2.13;1.10;;;17.00;59.80;;;;;;4201156;28;20055;-43
2024/01/19 06:57:11;;;;;;;1.83;0.80;;;16.80;59.80;;;;;;4192443;27;20520;-44
2024/01/19 06:59:55;;;;;;;2.25;0.57;;;16.70;60.10;;;;;;4196668;27;20112;-44
2024/01/19 07:02:36;;;;;;;2.70;0.90;;;16.60;60.40;;;;;;4180762;28;20090;-43
2024/01/19 07:05:21;;;;;;;1.60;0.98;;;16.60;60.70;;;;;;4206478;27;20051;-43
2024/01/19 07:08:02;;;;;;;2.13;1.00;;;16.70;60.70;;;;;;4194485;28;20059;-43
2024/01/19 07:10:45;;;;;;;;;;;16.80;60.40;;;;;;4187347;27;20049;-43
2024/01/19 07:13:29;;;;;;;1.30;1.02;;;16.90;60.10;;;;;;4192515;28;19968;-43
2024/01/19 07:16:11;;;;;;;1.88;0.88;;;17.00;59.80;;;;;;4210051;28;20189;-43
2024/01/19 07:18:52;;;;;;;1.52;0.90;;;17.00;59.80;;;;;;4202072;28;20059;-46
2024/01/19 07:21:42;;;;;;;2.38;0.90;;;17.00;59.80;;;;;;4159520;28;20050;-48
2024/01/19 07:24:24;;;;;;;3.53;0.95;;;17.10;59.70;;;;;;4188034;28;20047;-46
2024/01/19 07:27:18;;;;;;;4.55;1.63;;;17.10;59.40;;;;;;4178766;28;20166;-43
2024/01/19 07:30:00;;;;;;;1.25;1.00;;;17.20;59.00;;;;;;4204782;27;20506;-44
2024/01/19 07:32:42;;;;;;;2.75;1.08;;;17.20;59.00;;;;;;4218290;27;20050;-43
2024/01/19 07:35:41;;;;;;;4.38;1.20;;;17.20;59.00;;;;;;4208909;27;20068;-42
2024/01/19 07:38:22;;;;;;;;;;;17.20;58.90;;;;;;4208078;27;20179;-43
2024/01/19 07:41:06;;;;;;;3.23;1.33;;;17.20;59.10;;;;;;4199153;27;19930;-44
2024/01/19 07:43:57;;;;;;;2.97;1.30;;;17.20;59.10;;;;;;4193428;28;20104;-44
2024/01/19 07:46:40;;;;;;;3.35;1.20;;;17.20;58.90;;;;;;4209186;27;20055;-44
2024/01/19 07:49:21;;;;;;;5.15;1.30;;;17.20;58.80;;;;;;4174528;27;20084;-44
2024/01/19 07:52:13;;;;;;;3.08;1.13;;;17.30;58.60;;;;;;4162371;28;20151;-43
2024/01/19 07:54:55;;;;;;;2.55;1.05;;;17.30;58.50;;;;;;4208018;27;20517;-43
2024/01/19 07:57:36;;;;;;;2.40;0.90;;;17.30;58.60;;;;;;4200236;27;20123;-44
2024/01/19 08:00:20;;;;;;;;;;;17.30;58.60;;;;;;4218234;27;20078;-44
2024/01/19 08:03:04;;;;;;;3.70;1.10;;;17.40;58.60;;;;;;4199688;27;19931;-44
2024/01/19 08:05:55;;;;;;;3.75;0.90;;;17.40;58.40;;;;;;4208958;27;20055;-43
2024/01/19 08:08:36;;;;;;;1.90;0.90;;;17.40;59.00;;;;;;4182540;27;20402;-43
2024/01/19 08:11:17;;;;;;;;;;;17.30;58.40;;;;;;4197631;28;20097;-44
2024/01/19 08:13:58;;;;;;;3.30;0.90;;;17.30;58.50;;;;;;4195232;27;19927;-44
2024/01/19 08:16:43;;;;;;;2.78;1.05;;;17.30;58.40;;;;;;4205216;27;20070;-44
2024/01/19 08:19:28;;;;;;;3.08;1.20;;;17.30;58.50;;;;;;4214697;27;20058;-43
2024/01/19 08:22:09;;;;;;;5.50;1.38;;;17.20;58.70;;;;;;4211060;27;20055;-43
2024/01/19 08:24:50;;;;;;;3.50;1.25;;;17.10;58.70;;;;;;4199872;27;20088;-44
2024/01/19 08:27:40;;;;;;;6.07;1.45;;;17.10;58.90;;;;;;4206617;27;20055;-44
2024/01/19 08:30:21;;;;;;;2.72;1.02;;;17.00;59.20;;;;;;4212487;27;20047;-43
2024/01/19 08:33:04;;;;;;;2.83;1.33;;;17.00;59.40;;;;;;4191396;28;20105;-43
2024/01/19 08:35:46;;;;;;;3.10;1.15;;;17.00;59.30;;;;;;4187847;27;20438;-43
2024/01/19 08:38:27;;;;;;;5.43;1.45;;;17.00;59.10;;;;;;4203524;27;20054;-43
2024/01/19 08:41:11;;;;;;;4.40;1.05;;;17.00;59.00;;;;;;4183996;28;20075;-43
2024/01/19 08:43:52;;;;;;;2.05;0.80;;;17.00;59.20;;;;;;4216934;27;20047;-43
2024/01/19 08:46:35;;;;;;;4.60;1.40;;;16.90;59.30;;;;;;4207675;28;20497;-43
2024/01/19 08:49:22;;;;;;;3.65;1.10;;;16.80;59.40;;;;;;4164960;28;20115;-43
2024/01/19 08:52:06;;;;;;;2.92;1.20;;;16.70;59.50;;;;;;4201090;27;20062;-44
2024/01/19 08:54:49;;;;;;;3.45;1.02;;;16.60;59.70;;;;;;4216418;27;20072;-43
2024/01/19 08:57:37;;;;;;;2.10;0.95;;;16.50;60.00;;;;;;4199748;27;20072;-44
2024/01/19 09:00:31;;;;;;;4.07;1.10;;;16.40;60.40;;;;;;4190676;28;20157;-43
2024/01/19 09:03:15;;;;;;;5.10;1.15;;;16.30;60.80;;;;;;4205657;27;20132;-43
2024/01/19 09:05:58;;;;;;;3.40;1.05;;;16.30;61.30;;;;;;4200245;27;20051;-44
2024/01/19 09:08:44;;;;;;;3.80;1.20;;;16.30;61.30;;;;;;4190235;27;20051;-42
2024/01/19 09:11:26;;;;;;;2.42;1.05;;;16.30;61.30;;;;;;4170381;27;20082;-41
2024/01/19 09:14:09;;;;;;;1.83;1.00;;;16.20;61.80;;;;;;4202757;27;20059;-42
2024/01/19 09:16:53;;;;;;;4.18;1.30;;;16.30;62.00;;;;;;4204271;28;20054;-41
2024/01/19 09:19:37;;;;;;;7.13;1.40;;;16.40;62.00;;;;;;4182794;27;20148;-42
2024/01/19 09:22:24;;;;;;;3.58;1.10;;;16.50;61.50;;;;;;4189401;28;20059;-43
2024/01/19 09:25:08;;;;;;;2.83;1.08;;;16.50;61.40;;;;;;4170693;28;20399;-41
2024/01/19 09:27:52;;;;;;;2.47;0.85;;;16.60;61.20;;;;;;4172699;27;20506;-42
2024/01/19 09:30:34;;;;;;;5.57;1.30;;;16.60;61.00;;;;;;4163438;27;20051;-44
2024/01/19 09:33:22;;;;;;;2.40;1.00;;;16.60;61.00;;;;;;4210472;27;20596;-43
2024/01/19 09:36:04;;;;;;;3.25;1.00;;;16.50;60.90;;;;;;4187893;27;20058;-42
2024/01/19 09:38:48;;;;;;;3.80;1.25;;;16.50;60.90;;;;;;4203646;27;20046;-43
2024/01/19 09:41:38;;;;;;;2.22;0.98;;;16.50;60.80;;;;;;4187745;27;20094;-43
2024/01/19 09:44:20;;;;;;;3.33;1.13;;;16.50;61.00;;;;;;4168758;28;20114;-43
2024/01/19 09:47:17;;;;;;;2.53;1.27;;;16.50;61.10;;;;;;4160138;28;20058;-43
2024/01/19 09:50:06;;;;;;;3.80;1.30;;;16.60;60.60;;;;;;4198169;28;20055;-43
2024/01/19 09:53:06;;;;;;;1.20;0.98;;;16.70;60.40;;;;;;4211899;27;20055;-43
2024/01/19 09:55:48;;;;;;;3.58;1.25;;;16.80;60.00;;;;;;4208977;27;20089;-43
2024/01/19 09:58:30;;;;;;;3.15;1.30;;;16.80;60.00;;;;;;4201970;28;20059;-43
2024/01/19 10:01:11;;;;;;;2.65;1.10;;;16.90;59.90;;;;;;4198940;28;20047;-43
2024/01/19 10:03:59;;;;;;;3.90;1.67;;;17.00;59.70;;;;;;4196043;27;20059;-43
2024/01/19 10:06:46;;;;;;;6.33;1.27;;;17.10;59.40;;;;;;4199513;28;20308;-41
2024/01/19 10:09:29;;;;;;;2.58;1.33;;;17.20;59.20;;;;;;4188609;28;20367;-43
2024/01/19 10:12:12;;;;;;;4.53;2.15;;;17.20;58.80;;;;;;4217198;27;20047;-43
2024/01/19 10:14:54;;;;;;;6.70;1.77;;;17.20;58.70;;;;;;4219084;27;20050;-43
2024/01/19 10:17:38;;;;;;;8.45;1.38;;;17.20;58.70;;;;;;4209299;27;20070;-43
2024/01/19 10:20:20;;;;;;;3.92;1.27;;;17.20;58.80;;;;;;4207420;27;20545;-43
2024/01/19 10:23:21;;;;;;;6.93;1.38;;;17.30;58.60;;;;;;4185616;27;20051;-41
2024/01/19 10:26:14;;;;;;;2.92;1.20;;;17.30;58.20;;;;;;4202591;27;20120;-41
2024/01/19 10:28:58;;;;;;;5.53;1.95;;;17.30;58.40;;;;;;4205740;27;20055;-41
2024/01/19 10:31:41;;;;;;;4.95;1.23;;;17.30;58.30;;;;;;4204094;27;20415;-41
2024/01/19 10:34:27;;;;;;;6.30;1.55;;;17.30;58.40;;;;;;4216015;27;20054;-41
2024/01/19 10:37:09;;;;;;;6.72;1.30;;;17.20;58.40;;;;;;4209089;27;20054;-43
2024/01/19 10:39:51;;;;;;;6.18;2.25;;;17.10;58.60;;;;;;4203516;28;20051;-41
2024/01/19 10:42:40;;;;;;;7.43;1.92;;;17.10;59.00;;;;;;4213001;27;20092;-41
2024/01/19 10:45:28;;;;;;;5.40;1.55;;;17.10;59.20;;;;;;4206663;28;20088;-41
2024/01/19 10:48:09;;;;;;;4.90;1.83;;;17.20;59.10;;;;;;4202786;27;20578;-41
2024/01/19 10:50:50;;;;;;;5.15;1.70;;;17.20;58.80;;;;;;4212150;27;20402;-41
2024/01/19 10:53:31;;;;;;;5.32;1.73;;;17.30;58.40;;;;;;4219748;27;20401;-41
2024/01/19 10:56:19;;;;;;;5.10;1.60;;;17.40;58.10;;;;;;4202658;28;20059;-41
2024/01/19 10:59:11;;;;;;;5.38;1.73;;;17.50;58.00;;;;;;4187988;27;20063;-41
2024/01/19 11:01:59;;;;;;;6.15;1.90;;;17.40;57.90;;;;;;4224107;27;20505;-42
2024/01/19 11:04:43;;;;;;;3.35;1.73;;;17.40;57.80;;;;;;4202422;27;20051;-41
2024/01/19 11:07:24;;;;;;;2.60;1.25;;;17.40;57.90;;;;;;4213846;27;20059;-47
2024/01/19 11:10:06;;;;;;;4.43;1.65;;;17.30;58.10;;;;;;4198416;27;20543;-41
2024/01/19 11:12:51;;;;;;;4.38;1.85;;;17.20;58.30;;;;;;4200354;28;20058;-41
2024/01/19 11:15:36;;;;;;;7.97;1.50;;;17.10;58.70;;;;;;4201787;27;20501;-44
2024/01/19 11:18:19;;;;;;;5.70;1.35;;;17.10;59.80;;;;;;4200531;28;20051;-41
2024/01/19 11:21:01;;;;;;;4.65;1.17;;;17.10;59.00;;;;;;4200843;27;20050;-42
2024/01/19 11:23:42;;;;;;;5.65;1.30;;;17.20;58.70;;;;;;4203420;28;20269;-40
2024/01/19 11:26:30;;;;;;;6.30;1.83;;;17.30;58.60;;;;;;4190960;27;20059;-40
2024/01/19 11:29:20;;;;;;;5.55;1.95;;;17.30;58.50;;;;;;4165989;28;20055;-40
2024/01/19 11:32:03;;;;;;;6.80;1.98;;;17.40;58.40;;;;;;4206519;27;20067;-44
2024/01/19 11:34:49;;;;;;;3.90;1.80;;;17.40;58.30;;;;;;4198045;27;20054;-44
2024/01/19 11:37:43;;;;;;;4.47;1.48;;;17.40;58.10;;;;;;4213865;27;20533;-43
2024/01/19 11:40:51;;;;;;;3.72;1.27;;;17.30;58.10;;;;;;4209730;28;20072;-44
2024/01/19 11:43:39;;;;;;;6.05;2.13;;;17.30;58.40;;;;;;4186533;27;20066;-44
2024/01/19 11:46:42;;;;;;;6.43;1.80;;;17.20;58.60;;;;;;4209350;27;20060;-43
2024/01/19 11:49:49;;;;;;;3.33;1.40;;;17.10;58.90;;;;;;4208590;27;20051;-43
2024/01/19 11:52:38;;;;;;;4.57;1.60;;;17.10;59.00;;;;;;4201747;27;20129;-45
2024/01/19 11:55:40;;;;;;;10.07;1.70;;;17.10;59.90;;;;;;4209155;28;20145;-43
2024/01/19 11:58:32;;;;;;;3.92;1.20;;;17.10;59.10;;;;;;4208968;27;20055;-44
2024/01/19 12:01:13;;;;;;;4.80;1.27;;;17.00;59.30;;;;;;4200246;28;20822;-44
2024/01/19 12:03:55;;;;;;;7.45;1.90;;;16.90;59.50;;;;;;4212143;27;20053;-44
2024/01/19 12:06:38;;;;;;;8.93;1.55;;;16.80;59.70;;;;;;4216164;27;20055;-44
2024/01/19 12:09:19;;;;;;;4.65;1.95;;;16.70;60.10;;;;;;4200271;27;20055;-44
2024/01/19 12:12:02;;;;;;;7.78;1.30;;;16.60;60.50;;;;;;4202029;27;20490;-44
2024/01/19 12:14:43;;;;;;;5.28;1.70;;;16.60;60.70;;;;;;4200465;28;20077;-44
2024/01/19 12:17:25;;;;;;;9.18;1.90;;;16.70;60.90;;;;;;4183563;27;20613;-44
2024/01/19 12:20:09;;;;;;;5.78;1.30;;;16.80;60.90;;;;;;4188714;28;20104;-44
2024/01/19 12:22:55;;;;;;;7.35;1.40;;;16.70;60.70;;;;;;4196242;28;20055;-44
2024/01/19 12:25:38;;;;;;;4.68;1.83;;;16.70;61.50;;;;;;4198538;27;20125;-46
2024/01/19 12:28:18;;;;;;;;;;;16.70;60.90;;;;;;4198301;28;20181;-44
2024/01/19 12:30:59;;;;;;;9.07;1.58;;;16.70;61.20;;;;;;4188259;28;19939;-43
2024/01/19 12:33:41;;;;;;;5.38;1.38;;;16.70;61.30;;;;;;4211131;27;20543;-44
2024/01/19 12:36:23;;;;;;;;;;;16.60;61.30;;;;;;4201470;27;20050;-45
2024/01/19 12:39:11;;;;;;;4.45;1.10;;;16.60;61.30;;;;;;4205823;27;19926;-45
2024/01/19 12:41:59;;;;;;;6.90;1.40;;;16.50;61.40;;;;;;4211921;27;20047;-45
2024/01/19 12:44:41;;;;;;;3.63;1.40;;;16.50;61.50;;;;;;4202978;27;20151;-41
2024/01/19 12:47:22;;;;;;;4.10;1.52;;;16.50;61.90;;;;;;4203578;28;20055;-44
2024/01/19 12:50:04;;;;;;;4.35;1.08;;;16.50;61.90;;;;;;4204464;27;20062;-44
2024/01/19 12:52:48;;;;;;;5.43;1.50;;;16.50;62.00;;;;;;4202702;28;20051;-43
2024/01/19 12:55:32;;;;;;;3.75;1.13;;;16.50;62.30;;;;;;4203115;28;20074;-46
2024/01/19 12:58:22;;;;;;;6.88;1.80;;;16.40;62.10;;;;;;4203636;27;20055;-45
2024/01/19 13:01:07;;;;;;;7.10;1.27;;;16.30;62.20;;;;;;4218395;27;20062;-44
2024/01/19 13:03:48;;;;;;;3.90;1.48;;;16.30;62.30;;;;;;4206148;27;20100;-44
2024/01/19 13:06:30;;;;;;;5.65;1.20;;;16.20;62.50;;;;;;4203813;28;20402;-44
2024/01/19 13:09:15;;;;;;;6.20;1.70;;;16.20;62.80;;;;;;4206579;27;20094;-45
2024/01/19 13:12:10;;;;;;;6.05;1.10;;;16.10;63.00;;;;;;4202822;28;20082;-44
2024/01/19 13:14:52;;;;;;;6.05;1.35;;;16.00;63.00;;;;;;4217538;27;20059;-44
2024/01/19 13:17:34;;;;;;;7.53;1.58;;;15.90;63.60;;;;;;4203926;28;20047;-44
2024/01/19 13:20:24;;;;;;;4.65;1.20;;;15.80;63.80;;;;;;4204824;27;20157;-45
2024/01/19 13:23:06;;;;;;;4.95;1.20;;;15.80;64.10;;;;;;4215399;27;20619;-44
2024/01/19 13:25:53;;;;;;;3.28;1.20;;;15.70;64.20;;;;;;4201587;28;20589;-45
2024/01/19 13:28:37;;;;;;;5.05;1.15;;;15.60;64.10;;;;;;4203523;27;20051;-45
2024/01/19 13:31:18;;;;;;;2.30;1.10;;;15.50;64.70;;;;;;4200414;28;20047;-44
2024/01/19 13:34:00;;;;;;;5.18;1.27;;;15.40;65.00;;;;;;4217595;27;20055;-44
2024/01/19 13:36:41;;;;;;;4.55;0.90;;;15.30;65.30;;;;;;4203313;27;20051;-45
2024/01/19 13:39:22;;;;;;;4.13;1.08;;;15.30;65.90;;;;;;4201762;28;20524;-44
2024/01/19 13:42:04;;;;;;;1.88;1.10;;;15.20;66.00;;;;;;4202519;27;20108;-45
2024/01/19 13:44:47;;;;;;;4.50;0.82;;;15.10;66.30;;;;;;4218406;27;20100;-44
2024/01/19 13:47:27;;;;;;;8.23;1.88;;;15.10;66.50;;;;;;4217323;27;20074;-45
2024/01/19 13:50:09;;;;;;;5.87;2.37;;;15.00;66.60;;;;;;4208412;27;20061;-45
2024/01/19 13:52:50;;;;;;;3.00;1.00;;;15.00;67.40;;;;;;4202641;27;20071;-44
2024/01/19 13:55:31;;;;;;;4.07;1.40;;;14.90;67.10;;;;;;4202669;28;20055;-44
2024/01/19 13:58:12;;;;;;;5.82;1.25;;;14.90;67.00;;;;;;4202100;28;20055;-44
2024/01/19 14:00:55;;;;;;;4.10;1.00;;;14.90;67.90;;;;;;4213565;27;20091;-44
2024/01/19 14:03:36;;;;;;;4.68;1.38;;;14.90;68.00;;;;;;4214339;27;20050;-45
2024/01/19 14:06:18;;;;;;;7.28;1.20;;;14.90;68.00;;;;;;4198854;28;20129;-44
2024/01/19 14:08:59;;;;;;;2.55;0.65;;;14.80;67.90;;;;;;4189723;27;20059;-45
2024/01/19 14:11:41;;;;;;;4.40;1.15;;;14.80;67.90;;;;;;4186026;28;20065;-45
2024/01/19 14:14:22;;;;;;;6.40;1.20;;;14.80;67.70;;;;;;4210115;27;20152;-45
2024/01/19 14:17:04;;;;;;;3.35;0.90;;;14.70;67.70;;;;;;4200078;27;20205;-44
2024/01/19 14:19:46;;;;;;;6.07;1.05;;;14.70;68.00;;;;;;4208814;27;20162;-44
2024/01/19 14:22:27;;;;;;;3.38;0.95;;;14.70;68.10;;;;;;4217403;27;20387;-45
2024/01/19 14:25:09;;;;;;;2.90;1.08;;;14.70;68.30;;;;;;4213182;27;20528;-44
2024/01/19 14:27:50;;;;;;;6.28;1.33;;;14.70;68.30;;;;;;4202709;27;20063;-44